sensor_id;sensor_type;location;lat;lon;timestamp;pressure;altitude;pressure_sealevel;temperature;humidity
6433;BME280;3249;42.690;23.260;2023-06-04T00:00:08;94438.41;;;16.15;100.00
6433;BME280;3249;42.690;23.260;2023-06-04T00:02:38;94441.72;;;16.11;100.00
6433;BME280;3249;42.690;23.260;2023-06-04T00:05:09;94437.16;;;16.23;100.00
6433;BME280;3249;42.690;23.260;2023-06-04T00:07:38;94433.75;;;16.22;100.00
6433;BME280;3249;42.690;23.260;2023-06-04T00:10:09;94432.31;;;16.31;100.00
6433;BME280;3249;42.690;23.260;2023-06-04T00:12:38;94431.31;;;16.37;100.00
6433;BME280;3249;42.690;23.260;2023-06-04T00:15:08;94421.91;;;16.31;100.00
6433;BME280;3249;42.690;23.260;2023-06-04T00:17:37;94425.44;;;16.20;100.00
6433;BME280;3249;42.690;23.260;2023-06-04T00:20:10;94429.81;;;16.15;100.00
6433;BME280;3249;42.690;23.260;2023-06-04T00:22:39;94425.69;;;15.92;100.00
6433;BME280;3249;42.690;23.260;2023-06-04T00:25:08;94417.78;;;15.82;100.00
6433;BME280;3249;42.690;23.260;2023-06-04T00:27:37;94425.31;;;16.05;100.00
6433;BME280;3249;42.690;23.260;2023-06-04T00:30:07;94423.50;;;16.06;100.00
6433;BME280;3249;42.690;23.260;2023-06-04T00:32:37;94421.25;;;15.66;100.00
6433;BME280;3249;42.690;23.260;2023-06-04T00:35:09;94421.22;;;15.88;100.00
6433;BME280;3249;42.690;23.260;2023-06-04T00:37:38;94420.94;;;15.84;100.00
6433;BME280;3249;42.690;23.260;2023-06-04T00:40:08;94415.59;;;15.69;100.00
6433;BME280;3249;42.690;23.260;2023-06-04T00:42:37;94415.97;;;15.56;100.00
6433;BME280;3249;42.690;23.260;2023-06-04T00:45:08;94422.06;;;15.45;100.00
6433;BME280;3249;42.690;23.260;2023-06-04T00:47:41;94422.81;;;15.24;100.00
6433;BME280;3249;42.690;23.260;2023-06-04T00:50:13;94415.75;;;15.36;100.00
6433;BME280;3249;42.690;23.260;2023-06-04T00:52:42;94416.28;;;15.22;100.00
6433;BME280;3249;42.690;23.260;2023-06-04T00:55:12;94411.59;;;15.19;100.00
6433;BME280;3249;42.690;23.260;2023-06-04T00:57:44;94411.28;;;15.15;100.00
6433;BME280;3249;42.690;23.260;2023-06-04T01:00:14;94409.13;;;15.29;100.00
6433;BME280;3249;42.690;23.260;2023-06-04T01:02:43;94411.41;;;15.42;100.00
6433;BME280;3249;42.690;23.260;2023-06-04T01:05:25;94416.03;;;15.61;100.00
6433;BME280;3249;42.690;23.260;2023-06-04T01:07:57;94390.16;;;15.45;100.00
6433;BME280;3249;42.690;23.260;2023-06-04T01:10:26;94405.03;;;15.54;100.00
6433;BME280;3249;42.690;23.260;2023-06-04T01:12:55;94414.50;;;15.22;100.00
6433;BME280;3249;42.690;23.260;2023-06-04T01:15:25;94411.53;;;14.92;100.00
6433;BME280;3249;42.690;23.260;2023-06-04T01:17:58;94409.22;;;14.96;100.00
6433;BME280;3249;42.690;23.260;2023-06-04T01:20:35;94414.72;;;15.21;100.00
6433;BME280;3249;42.690;23.260;2023-06-04T01:23:31;94409.97;;;15.34;100.00
6433;BME280;3249;42.690;23.260;2023-06-04T01:26:03;94412.50;;;15.29;100.00
6433;BME280;3249;42.690;23.260;2023-06-04T01:28:34;94409.91;;;15.29;100.00
6433;BME280;3249;42.690;23.260;2023-06-04T01:31:04;94411.25;;;15.32;100.00
6433;BME280;3249;42.690;23.260;2023-06-04T01:33:33;94410.16;;;15.28;100.00
6433;BME280;3249;42.690;23.260;2023-06-04T01:36:06;94422.41;;;15.32;100.00
6433;BME280;3249;42.690;23.260;2023-06-04T01:38:38;94412.91;;;15.38;100.00
6433;BME280;3249;42.690;23.260;2023-06-04T01:41:06;94399.97;;;15.21;100.00
6433;BME280;3249;42.690;23.260;2023-06-04T01:43:35;94430.91;;;15.28;100.00
6433;BME280;3249;42.690;23.260;2023-06-04T01:46:05;94424.44;;;15.30;100.00
6433;BME280;3249;42.690;23.260;2023-06-04T01:48:34;94423.03;;;15.39;100.00
6433;BME280;3249;42.690;23.260;2023-06-04T01:51:07;94429.56;;;15.42;100.00
6433;BME280;3249;42.690;23.260;2023-06-04T01:53:36;94432.41;;;15.40;100.00
6433;BME280;3249;42.690;23.260;2023-06-04T01:56:05;94440.69;;;15.42;100.00
6433;BME280;3249;42.690;23.260;2023-06-04T01:58:34;94435.09;;;15.50;100.00
6433;BME280;3249;42.690;23.260;2023-06-04T02:01:03;94435.09;;;15.50;100.00
6433;BME280;3249;42.690;23.260;2023-06-04T02:03:32;94444.44;;;15.51;100.00
6433;BME280;3249;42.690;23.260;2023-06-04T02:06:03;94438.28;;;15.36;100.00
6433;BME280;3249;42.690;23.260;2023-06-04T02:08:36;94427.88;;;15.52;100.00
6433;BME280;3249;42.690;23.260;2023-06-04T02:11:06;94438.91;;;15.43;100.00
6433;BME280;3249;42.690;23.260;2023-06-04T02:13:35;94440.19;;;15.40;100.00
6433;BME280;3249;42.690;23.260;2023-06-04T02:16:05;94443.63;;;15.46;100.00
6433;BME280;3249;42.690;23.260;2023-06-04T02:18:34;94448.13;;;15.55;100.00
6433;BME280;3249;42.690;23.260;2023-06-04T02:21:03;94455.63;;;15.52;100.00
6433;BME280;3249;42.690;23.260;2023-06-04T02:23:32;94452.72;;;15.48;100.00
6433;BME280;3249;42.690;23.260;2023-06-04T02:26:03;94457.69;;;15.50;100.00
6433;BME280;3249;42.690;23.260;2023-06-04T02:28:32;94457.34;;;15.46;100.00
6433;BME280;3249;42.690;23.260;2023-06-04T02:31:01;94460.69;;;15.42;100.00
6433;BME280;3249;42.690;23.260;2023-06-04T02:33:31;94453.28;;;15.12;100.00
6433;BME280;3249;42.690;23.260;2023-06-04T02:36:00;94468.72;;;15.07;100.00
6433;BME280;3249;42.690;23.260;2023-06-04T02:38:28;94465.63;;;15.05;100.00
6433;BME280;3249;42.690;23.260;2023-06-04T02:40:57;94469.22;;;15.04;100.00
6433;BME280;3249;42.690;23.260;2023-06-04T02:43:29;94475.75;;;14.90;100.00
6433;BME280;3249;42.690;23.260;2023-06-04T02:45:58;94471.53;;;14.84;100.00
6433;BME280;3249;42.690;23.260;2023-06-04T02:48:26;94473.00;;;14.97;100.00
6433;BME280;3249;42.690;23.260;2023-06-04T02:50:55;94471.94;;;14.76;100.00
6433;BME280;3249;42.690;23.260;2023-06-04T02:53:24;94473.41;;;14.72;100.00
6433;BME280;3249;42.690;23.260;2023-06-04T02:55:53;94482.13;;;14.83;100.00
6433;BME280;3249;42.690;23.260;2023-06-04T02:58:25;94482.84;;;14.95;100.00
6433;BME280;3249;42.690;23.260;2023-06-04T03:00:57;94483.03;;;15.10;100.00
6433;BME280;3249;42.690;23.260;2023-06-04T03:03:26;94482.16;;;15.21;100.00
6433;BME280;3249;42.690;23.260;2023-06-04T03:05:57;94493.72;;;15.13;100.00
6433;BME280;3249;42.690;23.260;2023-06-04T03:08:26;94492.06;;;15.24;100.00
6433;BME280;3249;42.690;23.260;2023-06-04T03:10:54;94488.13;;;15.21;100.00
6433;BME280;3249;42.690;23.260;2023-06-04T03:13:23;94485.78;;;15.36;100.00
6433;BME280;3249;42.690;23.260;2023-06-04T03:15:53;94489.56;;;15.50;100.00
6433;BME280;3249;42.690;23.260;2023-06-04T03:18:29;94490.31;;;15.29;100.00
6433;BME280;3249;42.690;23.260;2023-06-04T03:20:58;94479.78;;;15.19;100.00
6433;BME280;3249;42.690;23.260;2023-06-04T03:23:27;94488.47;;;15.08;100.00
6433;BME280;3249;42.690;23.260;2023-06-04T03:25:56;94487.38;;;15.04;100.00
6433;BME280;3249;42.690;23.260;2023-06-04T03:28:25;94488.94;;;14.89;100.00
6433;BME280;3249;42.690;23.260;2023-06-04T03:30:54;94495.69;;;14.90;100.00
6433;BME280;3249;42.690;23.260;2023-06-04T03:33:25;94485.81;;;14.87;100.00
6433;BME280;3249;42.690;23.260;2023-06-04T03:35:57;94500.78;;;15.18;100.00
6433;BME280;3249;42.690;23.260;2023-06-04T03:38:26;94495.56;;;15.34;100.00
6433;BME280;3249;42.690;23.260;2023-06-04T03:40:55;94497.72;;;15.21;100.00
6433;BME280;3249;42.690;23.260;2023-06-04T03:43:24;94501.81;;;15.17;100.00
6433;BME280;3249;42.690;23.260;2023-06-04T03:45:58;94507.22;;;15.15;100.00
6433;BME280;3249;42.690;23.260;2023-06-04T03:48:26;94500.94;;;15.28;100.00
6433;BME280;3249;42.690;23.260;2023-06-04T03:50:58;94505.88;;;15.29;100.00
6433;BME280;3249;42.690;23.260;2023-06-04T03:53:28;94510.81;;;15.47;100.00
6433;BME280;3249;42.690;23.260;2023-06-04T03:55:57;94508.72;;;15.44;100.00
6433;BME280;3249;42.690;23.260;2023-06-04T03:58:26;94509.97;;;15.42;100.00
6433;BME280;3249;42.690;23.260;2023-06-04T04:00:56;94514.81;;;15.55;100.00
6433;BME280;3249;42.690;23.260;2023-06-04T04:03:25;94510.94;;;15.36;100.00
6433;BME280;3249;42.690;23.260;2023-06-04T04:06:02;94515.53;;;15.34;100.00
6433;BME280;3249;42.690;23.260;2023-06-04T04:08:31;94509.66;;;15.22;100.00
6433;BME280;3249;42.690;23.260;2023-06-04T04:11:01;94512.88;;;15.45;100.00
6433;BME280;3249;42.690;23.260;2023-06-04T04:13:30;94519.84;;;15.45;100.00
6433;BME280;3249;42.690;23.260;2023-06-04T04:15:59;94521.13;;;15.42;100.00
6433;BME280;3249;42.690;23.260;2023-06-04T04:18:28;94525.38;;;15.48;100.00
6433;BME280;3249;42.690;23.260;2023-06-04T04:21:04;94509.19;;;15.41;100.00
6433;BME280;3249;42.690;23.260;2023-06-04T04:23:33;94529.31;;;15.18;100.00
6433;BME280;3249;42.690;23.260;2023-06-04T04:26:02;94521.06;;;15.21;100.00
6433;BME280;3249;42.690;23.260;2023-06-04T04:28:32;94523.75;;;15.09;100.00
6433;BME280;3249;42.690;23.260;2023-06-04T04:31:01;94525.25;;;15.05;100.00
6433;BME280;3249;42.690;23.260;2023-06-04T04:33:36;94527.59;;;15.07;100.00
6433;BME280;3249;42.690;23.260;2023-06-04T04:36:11;94524.78;;;15.08;100.00
6433;BME280;3249;42.690;23.260;2023-06-04T04:38:46;94510.63;;;15.16;100.00
6433;BME280;3249;42.690;23.260;2023-06-04T04:41:20;94536.16;;;15.40;100.00
6433;BME280;3249;42.690;23.260;2023-06-04T04:43:53;94535.69;;;15.65;100.00
6433;BME280;3249;42.690;23.260;2023-06-04T04:46:28;94527.84;;;15.60;100.00
6433;BME280;3249;42.690;23.260;2023-06-04T04:48:57;94529.84;;;15.74;100.00
6433;BME280;3249;42.690;23.260;2023-06-04T04:51:29;94536.91;;;15.79;100.00
6433;BME280;3249;42.690;23.260;2023-06-04T04:53:58;94540.38;;;15.84;100.00
6433;BME280;3249;42.690;23.260;2023-06-04T04:56:33;94544.75;;;15.84;100.00
6433;BME280;3249;42.690;23.260;2023-06-04T04:59:03;94546.97;;;15.75;100.00
6433;BME280;3249;42.690;23.260;2023-06-04T05:01:32;94537.69;;;15.79;100.00
6433;BME280;3249;42.690;23.260;2023-06-04T05:04:02;94533.72;;;15.93;100.00
6433;BME280;3249;42.690;23.260;2023-06-04T05:06:34;94542.09;;;16.22;100.00
6433;BME280;3249;42.690;23.260;2023-06-04T05:09:03;94540.81;;;16.24;100.00
6433;BME280;3249;42.690;23.260;2023-06-04T05:11:33;94543.22;;;16.31;100.00
6433;BME280;3249;42.690;23.260;2023-06-04T05:14:02;94544.03;;;16.31;100.00
6433;BME280;3249;42.690;23.260;2023-06-04T05:16:32;94546.91;;;16.56;100.00
6433;BME280;3249;42.690;23.260;2023-06-04T05:19:01;94545.94;;;16.41;100.00
6433;BME280;3249;42.690;23.260;2023-06-04T05:21:36;94548.50;;;16.62;100.00
6433;BME280;3249;42.690;23.260;2023-06-04T05:24:06;94556.47;;;16.82;100.00
6433;BME280;3249;42.690;23.260;2023-06-04T05:26:38;94554.38;;;16.79;100.00
6433;BME280;3249;42.690;23.260;2023-06-04T05:29:14;94555.13;;;16.75;100.00
6433;BME280;3249;42.690;23.260;2023-06-04T05:31:44;94553.88;;;16.82;100.00
6433;BME280;3249;42.690;23.260;2023-06-04T05:34:15;94554.66;;;16.83;100.00
6433;BME280;3249;42.690;23.260;2023-06-04T05:36:49;94558.72;;;17.00;100.00
6433;BME280;3249;42.690;23.260;2023-06-04T05:39:19;94564.38;;;16.92;100.00
6433;BME280;3249;42.690;23.260;2023-06-04T05:41:58;94554.69;;;16.56;100.00
6433;BME280;3249;42.690;23.260;2023-06-04T05:44:27;94570.75;;;16.80;100.00
6433;BME280;3249;42.690;23.260;2023-06-04T05:46:57;94573.69;;;16.88;100.00
6433;BME280;3249;42.690;23.260;2023-06-04T05:49:26;94574.19;;;16.85;100.00
6433;BME280;3249;42.690;23.260;2023-06-04T05:52:00;94571.16;;;16.98;100.00
6433;BME280;3249;42.690;23.260;2023-06-04T05:54:30;94570.09;;;17.26;100.00
6433;BME280;3249;42.690;23.260;2023-06-04T05:56:59;94577.66;;;17.27;100.00
6433;BME280;3249;42.690;23.260;2023-06-04T05:59:28;94590.28;;;17.40;100.00
6433;BME280;3249;42.690;23.260;2023-06-04T06:01:57;94587.19;;;17.48;100.00
6433;BME280;3249;42.690;23.260;2023-06-04T06:04:27;94581.50;;;17.51;100.00
6433;BME280;3249;42.690;23.260;2023-06-04T06:06:59;94587.94;;;17.44;100.00
6433;BME280;3249;42.690;23.260;2023-06-04T06:09:28;94595.00;;;17.43;100.00
6433;BME280;3249;42.690;23.260;2023-06-04T06:11:57;94595.22;;;17.42;100.00
6433;BME280;3249;42.690;23.260;2023-06-04T06:14:26;94592.88;;;17.40;100.00
6433;BME280;3249;42.690;23.260;2023-06-04T06:16:56;94596.66;;;17.28;100.00
6433;BME280;3249;42.690;23.260;2023-06-04T06:19:26;94594.63;;;17.35;100.00
6433;BME280;3249;42.690;23.260;2023-06-04T06:21:55;94596.47;;;17.34;100.00
6433;BME280;3249;42.690;23.260;2023-06-04T06:24:27;94591.72;;;17.63;100.00
6433;BME280;3249;42.690;23.260;2023-06-04T06:26:56;94593.59;;;17.67;100.00
6433;BME280;3249;42.690;23.260;2023-06-04T06:29:25;94600.03;;;18.07;100.00
6433;BME280;3249;42.690;23.260;2023-06-04T06:31:54;94596.47;;;17.76;100.00
6433;BME280;3249;42.690;23.260;2023-06-04T06:34:24;94597.34;;;17.91;100.00
6433;BME280;3249;42.690;23.260;2023-06-04T06:36:53;94601.34;;;18.09;100.00
6433;BME280;3249;42.690;23.260;2023-06-04T06:39:23;94602.69;;;18.17;100.00
6433;BME280;3249;42.690;23.260;2023-06-04T06:41:54;94603.59;;;18.37;100.00
6433;BME280;3249;42.690;23.260;2023-06-04T06:44:26;94609.72;;;18.16;100.00
6433;BME280;3249;42.690;23.260;2023-06-04T06:46:59;94610.75;;;18.15;100.00
6433;BME280;3249;42.690;23.260;2023-06-04T06:49:28;94601.38;;;18.19;100.00
6433;BME280;3249;42.690;23.260;2023-06-04T06:51:57;94610.91;;;18.50;100.00
6433;BME280;3249;42.690;23.260;2023-06-04T06:54:26;94608.06;;;18.57;100.00
6433;BME280;3249;42.690;23.260;2023-06-04T06:56:58;94617.00;;;18.76;100.00
6433;BME280;3249;42.690;23.260;2023-06-04T06:59:27;94609.69;;;18.78;100.00
6433;BME280;3249;42.690;23.260;2023-06-04T07:01:56;94621.66;;;18.59;100.00
6433;BME280;3249;42.690;23.260;2023-06-04T07:04:25;94616.44;;;18.59;100.00
6433;BME280;3249;42.690;23.260;2023-06-04T07:06:54;94622.72;;;18.73;100.00
6433;BME280;3249;42.690;23.260;2023-06-04T07:09:23;94622.19;;;18.71;100.00
6433;BME280;3249;42.690;23.260;2023-06-04T07:11:52;94620.91;;;18.83;100.00
6433;BME280;3249;42.690;23.260;2023-06-04T07:14:24;94629.28;;;18.95;100.00
6433;BME280;3249;42.690;23.260;2023-06-04T07:16:53;94630.28;;;18.64;100.00
6433;BME280;3249;42.690;23.260;2023-06-04T07:19:21;94635.50;;;18.69;100.00
6433;BME280;3249;42.690;23.260;2023-06-04T07:21:52;94629.22;;;18.60;100.00
6433;BME280;3249;42.690;23.260;2023-06-04T07:24:21;94637.00;;;18.55;100.00
6433;BME280;3249;42.690;23.260;2023-06-04T07:26:49;94644.13;;;18.80;100.00
6433;BME280;3249;42.690;23.260;2023-06-04T07:29:18;94641.00;;;18.88;100.00
6433;BME280;3249;42.690;23.260;2023-06-04T07:31:50;94634.75;;;18.89;100.00
6433;BME280;3249;42.690;23.260;2023-06-04T07:34:19;94646.72;;;18.75;100.00
6433;BME280;3249;42.690;23.260;2023-06-04T07:36:47;94641.44;;;18.55;100.00
6433;BME280;3249;42.690;23.260;2023-06-04T07:39:17;94647.31;;;19.07;100.00
6433;BME280;3249;42.690;23.260;2023-06-04T07:41:46;94654.91;;;19.23;100.00
6433;BME280;3249;42.690;23.260;2023-06-04T07:44:15;94657.81;;;19.32;100.00
6433;BME280;3249;42.690;23.260;2023-06-04T07:46:44;94662.00;;;19.68;100.00
6433;BME280;3249;42.690;23.260;2023-06-04T07:49:15;94661.22;;;19.67;100.00
6433;BME280;3249;42.690;23.260;2023-06-04T07:51:44;94664.34;;;19.69;100.00
6433;BME280;3249;42.690;23.260;2023-06-04T07:54:13;94659.38;;;19.53;100.00
6433;BME280;3249;42.690;23.260;2023-06-04T07:56:43;94671.38;;;19.94;100.00
6433;BME280;3249;42.690;23.260;2023-06-04T07:59:12;94669.53;;;20.14;100.00
6433;BME280;3249;42.690;23.260;2023-06-04T08:01:41;94675.53;;;20.25;100.00
6433;BME280;3249;42.690;23.260;2023-06-04T08:04:10;94671.88;;;20.26;100.00
6433;BME280;3249;42.690;23.260;2023-06-04T08:06:41;94679.16;;;20.34;100.00
6433;BME280;3249;42.690;23.260;2023-06-04T08:09:10;94673.97;;;20.29;100.00
6433;BME280;3249;42.690;23.260;2023-06-04T08:11:41;94680.72;;;20.35;100.00
6433;BME280;3249;42.690;23.260;2023-06-04T08:14:11;94667.34;;;20.46;100.00
6433;BME280;3249;42.690;23.260;2023-06-04T08:16:40;94656.34;;;20.49;100.00
6433;BME280;3249;42.690;23.260;2023-06-04T08:19:21;94678.22;;;20.73;100.00
6433;BME280;3249;42.690;23.260;2023-06-04T08:22:00;94680.53;;;20.85;100.00
6433;BME280;3249;42.690;23.260;2023-06-04T08:24:45;94676.34;;;20.89;100.00
6433;BME280;3249;42.690;23.260;2023-06-04T08:27:33;94682.72;;;20.63;100.00
6433;BME280;3249;42.690;23.260;2023-06-04T08:30:15;94672.25;;;20.63;100.00
6433;BME280;3249;42.690;23.260;2023-06-04T08:33:04;94682.41;;;20.79;100.00
6433;BME280;3249;42.690;23.260;2023-06-04T08:35:40;94688.41;;;20.85;100.00
6433;BME280;3249;42.690;23.260;2023-06-04T08:38:12;94691.75;;;21.00;100.00
6433;BME280;3249;42.690;23.260;2023-06-04T08:40:41;94690.31;;;21.23;100.00
6433;BME280;3249;42.690;23.260;2023-06-04T08:43:10;94692.06;;;21.32;100.00
6433;BME280;3249;42.690;23.260;2023-06-04T08:45:40;94693.63;;;21.38;100.00
6433;BME280;3249;42.690;23.260;2023-06-04T08:48:13;94698.19;;;21.18;100.00
6433;BME280;3249;42.690;23.260;2023-06-04T08:50:45;94689.53;;;21.17;100.00
6433;BME280;3249;42.690;23.260;2023-06-04T08:53:19;94701.75;;;21.37;100.00
6433;BME280;3249;42.690;23.260;2023-06-04T08:55:50;94702.91;;;21.21;100.00
6433;BME280;3249;42.690;23.260;2023-06-04T08:58:23;94701.94;;;21.02;100.00
6433;BME280;3249;42.690;23.260;2023-06-04T09:00:52;94700.69;;;20.84;100.00
6433;BME280;3249;42.690;23.260;2023-06-04T09:03:21;94704.50;;;20.48;100.00
6433;BME280;3249;42.690;23.260;2023-06-04T09:05:51;94707.44;;;20.17;100.00
6433;BME280;3249;42.690;23.260;2023-06-04T09:08:24;94680.78;;;19.90;100.00
6433;BME280;3249;42.690;23.260;2023-06-04T09:10:54;94704.84;;;19.87;100.00
6433;BME280;3249;42.690;23.260;2023-06-04T09:13:28;94707.72;;;19.80;100.00
6433;BME280;3249;42.690;23.260;2023-06-04T09:15:59;94701.97;;;19.88;100.00
6433;BME280;3249;42.690;23.260;2023-06-04T09:18:28;94700.38;;;19.57;100.00
6433;BME280;3249;42.690;23.260;2023-06-04T09:21:02;94701.69;;;19.95;100.00
6433;BME280;3249;42.690;23.260;2023-06-04T09:23:35;94684.97;;;19.91;100.00
6433;BME280;3249;42.690;23.260;2023-06-04T09:26:07;94699.84;;;20.00;100.00
6433;BME280;3249;42.690;23.260;2023-06-04T09:28:40;94697.50;;;20.04;100.00
6433;BME280;3249;42.690;23.260;2023-06-04T09:31:09;94698.28;;;20.19;100.00
6433;BME280;3249;42.690;23.260;2023-06-04T09:33:43;94704.31;;;20.25;100.00
6433;BME280;3249;42.690;23.260;2023-06-04T09:36:12;94677.88;;;20.21;100.00
6433;BME280;3249;42.690;23.260;2023-06-04T09:38:46;94701.63;;;20.40;100.00
6433;BME280;3249;42.690;23.260;2023-06-04T09:41:17;94705.28;;;20.49;100.00
6433;BME280;3249;42.690;23.260;2023-06-04T09:43:49;94703.69;;;20.58;100.00
6433;BME280;3249;42.690;23.260;2023-06-04T09:46:18;94699.47;;;20.62;100.00
6433;BME280;3249;42.690;23.260;2023-06-04T09:48:47;94706.75;;;20.75;100.00
6433;BME280;3249;42.690;23.260;2023-06-04T09:51:16;94700.44;;;20.86;100.00
6433;BME280;3249;42.690;23.260;2023-06-04T09:53:56;94688.09;;;20.96;100.00
6433;BME280;3249;42.690;23.260;2023-06-04T09:56:27;94702.19;;;21.10;100.00
6433;BME280;3249;42.690;23.260;2023-06-04T09:58:58;94705.75;;;21.24;100.00
6433;BME280;3249;42.690;23.260;2023-06-04T10:01:30;94704.94;;;21.29;100.00
6433;BME280;3249;42.690;23.260;2023-06-04T10:04:03;94680.66;;;21.18;100.00
6433;BME280;3249;42.690;23.260;2023-06-04T10:06:35;94694.38;;;21.44;100.00
6433;BME280;3249;42.690;23.260;2023-06-04T10:09:08;94706.00;;;21.66;99.83
6433;BME280;3249;42.690;23.260;2023-06-04T10:11:40;94665.13;;;21.27;100.00
6433;BME280;3249;42.690;23.260;2023-06-04T10:14:15;94701.72;;;21.80;100.00
6433;BME280;3249;42.690;23.260;2023-06-04T10:16:48;94713.53;;;21.78;100.00
6433;BME280;3249;42.690;23.260;2023-06-04T10:19:19;94702.56;;;21.71;98.05
6433;BME280;3249;42.690;23.260;2023-06-04T10:21:48;94697.13;;;21.62;97.57
6433;BME280;3249;42.690;23.260;2023-06-04T10:24:20;94705.19;;;21.66;98.10
6433;BME280;3249;42.690;23.260;2023-06-04T10:26:54;94705.19;;;21.66;97.97
6433;BME280;3249;42.690;23.260;2023-06-04T10:29:28;94695.31;;;21.58;97.36
6433;BME280;3249;42.690;23.260;2023-06-04T10:31:59;94699.88;;;21.81;97.48
6433;BME280;3249;42.690;23.260;2023-06-04T10:34:28;94699.34;;;21.79;97.60
6433;BME280;3249;42.690;23.260;2023-06-04T10:36:58;94696.28;;;21.67;98.47
6433;BME280;3249;42.690;23.260;2023-06-04T10:39:32;94697.22;;;21.86;100.00
6433;BME280;3249;42.690;23.260;2023-06-04T10:42:01;94695.16;;;22.12;94.31
6433;BME280;3249;42.690;23.260;2023-06-04T10:44:31;94692.84;;;22.05;94.79
6433;BME280;3249;42.690;23.260;2023-06-04T10:47:01;94691.91;;;21.91;95.72
6433;BME280;3249;42.690;23.260;2023-06-04T10:49:30;94695.66;;;21.85;97.36
6433;BME280;3249;42.690;23.260;2023-06-04T10:52:09;94690.03;;;21.96;98.43
6433;BME280;3249;42.690;23.260;2023-06-04T10:54:42;94696.06;;;21.97;95.15
6433;BME280;3249;42.690;23.260;2023-06-04T10:57:12;94692.13;;;22.23;98.24
6433;BME280;3249;42.690;23.260;2023-06-04T10:59:53;94694.16;;;22.31;93.15
6433;BME280;3249;42.690;23.260;2023-06-04T11:02:22;94701.00;;;22.56;90.50
6433;BME280;3249;42.690;23.260;2023-06-04T11:04:59;94695.16;;;22.64;89.88
6433;BME280;3249;42.690;23.260;2023-06-04T11:07:40;94701.34;;;22.49;91.96
6433;BME280;3249;42.690;23.260;2023-06-04T11:10:14;94702.47;;;22.38;91.55
6433;BME280;3249;42.690;23.260;2023-06-04T11:12:45;94700.13;;;22.13;93.19
6433;BME280;3249;42.690;23.260;2023-06-04T11:15:14;94701.69;;;22.14;91.71
6433;BME280;3249;42.690;23.260;2023-06-04T11:17:50;94697.78;;;22.12;95.73
6433;BME280;3249;42.690;23.260;2023-06-04T11:20:21;94697.88;;;22.02;96.09
6433;BME280;3249;42.690;23.260;2023-06-04T11:22:51;94683.59;;;22.13;96.73
6433;BME280;3249;42.690;23.260;2023-06-04T11:25:23;94694.00;;;22.23;97.91
6433;BME280;3249;42.690;23.260;2023-06-04T11:27:53;94693.66;;;22.06;95.73
6433;BME280;3249;42.690;23.260;2023-06-04T11:30:23;94693.19;;;22.22;96.92
6433;BME280;3249;42.690;23.260;2023-06-04T11:33:00;94694.22;;;22.26;96.21
6433;BME280;3249;42.690;23.260;2023-06-04T11:35:30;94687.91;;;22.27;93.46
6433;BME280;3249;42.690;23.260;2023-06-04T11:37:59;94685.91;;;22.43;90.55
6433;BME280;3249;42.690;23.260;2023-06-04T11:40:31;94685.53;;;22.54;92.52
6433;BME280;3249;42.690;23.260;2023-06-04T11:43:01;94694.38;;;22.63;91.80
6433;BME280;3249;42.690;23.260;2023-06-04T11:45:30;94691.69;;;22.68;91.88
6433;BME280;3249;42.690;23.260;2023-06-04T11:48:00;94694.75;;;22.52;91.46
6433;BME280;3249;42.690;23.260;2023-06-04T11:50:31;94693.13;;;22.32;97.13
6433;BME280;3249;42.690;23.260;2023-06-04T11:53:00;94695.63;;;22.42;93.67
6433;BME280;3249;42.690;23.260;2023-06-04T11:55:32;94693.00;;;22.42;91.35
6433;BME280;3249;42.690;23.260;2023-06-04T11:58:01;94694.63;;;22.38;88.88
6433;BME280;3249;42.690;23.260;2023-06-04T12:00:30;94691.50;;;22.36;94.59
6433;BME280;3249;42.690;23.260;2023-06-04T12:02:59;94696.94;;;22.16;92.75
6433;BME280;3249;42.690;23.260;2023-06-04T12:05:29;94693.44;;;21.97;94.29
6433;BME280;3249;42.690;23.260;2023-06-04T12:08:06;94692.72;;;21.91;99.11
6433;BME280;3249;42.690;23.260;2023-06-04T12:10:41;94694.59;;;21.86;96.36
6433;BME280;3249;42.690;23.260;2023-06-04T12:13:11;94699.50;;;21.92;100.00
6433;BME280;3249;42.690;23.260;2023-06-04T12:15:41;94703.06;;;22.07;92.85
6433;BME280;3249;42.690;23.260;2023-06-04T12:18:10;94701.25;;;22.02;98.25
6433;BME280;3249;42.690;23.260;2023-06-04T12:20:40;94695.53;;;22.00;97.55
6433;BME280;3249;42.690;23.260;2023-06-04T12:23:19;94686.31;;;21.69;100.00
6433;BME280;3249;42.690;23.260;2023-06-04T12:25:53;94684.56;;;21.59;100.00
6433;BME280;3249;42.690;23.260;2023-06-04T12:28:22;94685.09;;;21.56;100.00
6433;BME280;3249;42.690;23.260;2023-06-04T12:30:51;94682.34;;;21.38;100.00
6433;BME280;3249;42.690;23.260;2023-06-04T12:33:20;94688.56;;;21.08;100.00
6433;BME280;3249;42.690;23.260;2023-06-04T12:35:49;94690.44;;;20.98;100.00
6433;BME280;3249;42.690;23.260;2023-06-04T12:38:18;94687.03;;;20.97;100.00
6433;BME280;3249;42.690;23.260;2023-06-04T12:40:47;94670.03;;;20.95;100.00
6433;BME280;3249;42.690;23.260;2023-06-04T12:43:18;94687.03;;;20.97;100.00
6433;BME280;3249;42.690;23.260;2023-06-04T12:45:47;94690.13;;;21.09;100.00
6433;BME280;3249;42.690;23.260;2023-06-04T12:48:16;94686.00;;;20.98;100.00
6433;BME280;3249;42.690;23.260;2023-06-04T12:50:45;94699.75;;;21.19;100.00
6433;BME280;3249;42.690;23.260;2023-06-04T12:53:15;94691.91;;;21.19;100.00
6433;BME280;3249;42.690;23.260;2023-06-04T12:55:44;94688.75;;;21.22;100.00
6433;BME280;3249;42.690;23.260;2023-06-04T12:58:12;94676.75;;;21.11;100.00
6433;BME280;3249;42.690;23.260;2023-06-04T13:00:45;94697.78;;;21.39;100.00
6433;BME280;3249;42.690;23.260;2023-06-04T13:03:14;94693.34;;;21.40;100.00
6433;BME280;3249;42.690;23.260;2023-06-04T13:05:43;94685.59;;;21.25;100.00
6433;BME280;3249;42.690;23.260;2023-06-04T13:08:12;94693.09;;;21.36;100.00
6433;BME280;3249;42.690;23.260;2023-06-04T13:10:42;94692.72;;;21.53;100.00
6433;BME280;3249;42.690;23.260;2023-06-04T13:13:10;94672.97;;;21.32;100.00
6433;BME280;3249;42.690;23.260;2023-06-04T13:15:41;94695.09;;;21.49;100.00
6433;BME280;3249;42.690;23.260;2023-06-04T13:18:13;94690.66;;;21.50;100.00
6433;BME280;3249;42.690;23.260;2023-06-04T13:20:42;94686.44;;;21.54;100.00